Time;durP1;ratioP1;P1;durP2;ratioP2;P2;SDS_P1;SDS_P2;PMS_P1;PMS_P2;Temp;Humidity;BMP_temperature;BMP_pressure;BME280_temperature;BME280_humidity;BME280_pressure;Samples;Min_cycle;Max_cycle;Signal;HPM_P1;HPM_P2
2023/08/06 00:00:28;;;;;;;1.90;0.70;;;15.60;99.90;;;;;;5015667;28;20451;-80
2023/08/06 00:02:55;;;;;;;0.60;0.60;;;15.60;99.90;;;;;;5015667;28;20446;-79
2023/08/06 00:05:22;;;;;;;0.80;0.80;;;15.50;99.90;;;;;;5015833;28;20452;-79
2023/08/06 00:07:49;;;;;;;1.10;1.00;;;15.60;99.90;;;;;;5015615;28;20447;-79
2023/08/06 00:10:16;;;;;;;0.70;0.70;;;15.50;99.90;;;;;;5015467;28;20491;-79
2023/08/06 00:12:43;;;;;;;0.73;0.70;;;15.60;99.90;;;;;;5015499;28;20451;-80
2023/08/06 00:15:10;;;;;;;2.87;1.20;;;15.50;99.90;;;;;;5015376;28;20877;-80
2023/08/06 00:17:38;;;;;;;0.97;0.70;;;15.50;99.90;;;;;;5015409;28;20447;-79
2023/08/06 00:20:06;;;;;;;0.77;0.77;;;15.50;99.90;;;;;;5015330;28;20446;-80
2023/08/06 00:22:34;;;;;;;1.00;0.90;;;15.50;99.90;;;;;;5014721;28;21012;-80
2023/08/06 00:25:01;;;;;;;0.70;0.70;;;15.50;99.90;;;;;;5015440;28;20459;-80
2023/08/06 00:27:28;;;;;;;0.73;0.70;;;15.50;99.90;;;;;;5015236;28;20452;-79
2023/08/06 00:29:54;;;;;;;3.90;0.80;;;15.50;99.90;;;;;;5014855;28;20475;-80
2023/08/06 00:32:21;;;;;;;0.97;0.90;;;15.50;99.90;;;;;;5015130;28;20462;-80
2023/08/06 00:34:50;;;;;;;0.53;0.53;;;15.50;99.90;;;;;;5014647;28;20565;-80
2023/08/06 00:37:18;;;;;;;1.10;0.97;;;15.40;99.90;;;;;;5015001;28;20542;-79
2023/08/06 00:39:45;;;;;;;1.03;0.93;;;15.40;99.90;;;;;;5014924;28;20451;-80
2023/08/06 00:42:12;;;;;;;0.80;0.80;;;15.40;99.90;;;;;;5014657;28;20447;-80
2023/08/06 00:44:39;;;;;;;1.10;1.00;;;15.40;99.90;;;;;;5014616;28;20456;-79
2023/08/06 00:47:08;;;;;;;0.93;0.80;;;15.40;99.90;;;;;;5014898;28;20440;-79
2023/08/06 00:49:36;;;;;;;0.90;0.73;;;15.40;99.90;;;;;;5014509;28;20479;-79
2023/08/06 00:52:06;;;;;;;0.80;0.80;;;15.30;99.90;;;;;;5014798;28;20451;-80
2023/08/06 00:54:33;;;;;;;1.27;0.80;;;15.30;99.90;;;;;;5014357;28;21014;-80
2023/08/06 00:57:01;;;;;;;0.60;0.60;;;15.30;99.90;;;;;;5014420;28;20443;-80
2023/08/06 00:59:29;;;;;;;0.83;0.83;;;15.30;99.90;;;;;;5014624;28;20440;-80
2023/08/06 01:01:56;;;;;;;1.07;0.80;;;15.30;99.90;;;;;;5014842;28;20444;-80
2023/08/06 01:04:24;;;;;;;1.10;1.00;;;15.20;99.90;;;;;;5014464;28;20479;-80
2023/08/06 01:07:02;;;;;;;1.07;1.00;;;15.20;99.90;;;;;;5014201;28;20451;-79
2023/08/06 01:09:39;;;;;;;2.27;1.00;;;15.10;99.90;;;;;;5014427;28;20834;-80
2023/08/06 01:12:12;;;;;;;0.70;0.70;;;15.10;99.90;;;;;;5014185;28;20908;-79
2023/08/06 01:14:48;;;;;;;1.50;0.73;;;15.10;99.90;;;;;;5014337;28;20478;-79
2023/08/06 01:17:16;;;;;;;0.70;0.63;;;15.00;99.90;;;;;;5014371;28;20428;-79
2023/08/06 01:19:42;;;;;;;0.80;0.80;;;15.00;99.90;;;;;;5013972;28;20960;-80
2023/08/06 01:22:11;;;;;;;0.80;0.80;;;15.00;99.90;;;;;;5014211;28;20539;-79
2023/08/06 01:24:37;;;;;;;1.47;0.70;;;15.00;99.90;;;;;;5014382;28;20960;-80
2023/08/06 01:27:09;;;;;;;1.27;1.17;;;14.90;99.90;;;;;;5013878;28;20455;-79
2023/08/06 01:29:42;;;;;;;0.80;0.70;;;14.90;99.90;;;;;;5014133;28;20560;-79
2023/08/06 01:32:11;;;;;;;1.03;0.93;;;14.80;99.90;;;;;;5013803;28;20902;-79
2023/08/06 01:34:41;;;;;;;0.73;0.70;;;14.80;99.90;;;;;;5013123;28;20480;-79
2023/08/06 01:37:08;;;;;;;1.50;1.07;;;14.80;99.90;;;;;;5013706;28;20432;-79
2023/08/06 01:39:36;;;;;;;1.00;0.60;;;14.80;99.90;;;;;;5013687;28;20444;-79
2023/08/06 01:42:03;;;;;;;1.90;1.70;;;14.80;99.90;;;;;;5013580;28;20447;-79
2023/08/06 01:44:30;;;;;;;1.80;1.10;;;14.80;99.90;;;;;;5013766;28;20984;-79
2023/08/06 01:46:57;;;;;;;1.00;0.90;;;14.80;99.90;;;;;;5013948;28;20463;-79
2023/08/06 01:49:24;;;;;;;1.17;0.60;;;14.80;99.90;;;;;;5013743;28;20491;-79
2023/08/06 01:51:51;;;;;;;1.37;0.83;;;14.80;99.90;;;;;;5013816;28;20412;-79
2023/08/06 01:54:17;;;;;;;0.70;0.60;;;14.80;99.90;;;;;;5013641;28;20474;-79
2023/08/06 01:56:45;;;;;;;1.93;0.90;;;14.70;99.90;;;;;;5013682;28;20459;-79
2023/08/06 01:59:12;;;;;;;1.13;0.63;;;14.70;99.90;;;;;;5013355;28;20455;-80
2023/08/06 02:01:39;;;;;;;1.00;0.60;;;14.70;99.90;;;;;;5013895;28;20451;-79
2023/08/06 02:04:06;;;;;;;1.17;1.03;;;14.70;99.90;;;;;;5013564;28;20451;-79
2023/08/06 02:06:32;;;;;;;2.30;1.47;;;14.70;99.90;;;;;;5013591;28;20454;-80
2023/08/06 02:08:59;;;;;;;1.80;0.73;;;14.70;99.90;;;;;;5013703;28;20448;-79
2023/08/06 02:11:26;;;;;;;1.17;0.50;;;14.60;99.90;;;;;;5013557;28;20469;-79
2023/08/06 02:13:54;;;;;;;1.03;0.80;;;14.60;99.90;;;;;;5013152;28;21008;-79
2023/08/06 02:16:21;;;;;;;0.97;0.87;;;14.60;99.90;;;;;;5013895;28;20455;-79
2023/08/06 02:18:47;;;;;;;1.73;1.63;;;14.60;99.90;;;;;;5013110;28;20455;-80
2023/08/06 02:21:14;;;;;;;0.70;0.70;;;14.50;99.90;;;;;;5013104;28;20452;-79
2023/08/06 02:23:41;;;;;;;1.03;0.93;;;14.50;99.90;;;;;;5013400;28;20471;-79
2023/08/06 02:26:08;;;;;;;1.53;1.00;;;14.50;99.90;;;;;;5013411;28;20450;-79
2023/08/06 02:28:34;;;;;;;1.10;0.70;;;14.40;99.90;;;;;;5013291;28;20440;-79
2023/08/06 02:31:03;;;;;;;1.23;1.13;;;14.40;99.90;;;;;;5013033;28;20483;-80
2023/08/06 02:33:29;;;;;;;0.90;0.73;;;14.40;99.90;;;;;;5013223;28;20480;-79
2023/08/06 02:36:04;;;;;;;2.07;1.30;;;14.40;99.90;;;;;;5012954;28;20479;-79
2023/08/06 02:38:31;;;;;;;0.90;0.90;;;14.50;99.90;;;;;;5013590;28;20451;-79
2023/08/06 02:40:57;;;;;;;1.10;0.60;;;14.50;99.90;;;;;;5013065;28;20447;-79
2023/08/06 02:43:24;;;;;;;1.00;0.90;;;14.50;99.90;;;;;;5013187;28;20458;-80
2023/08/06 02:45:51;;;;;;;1.30;0.80;;;14.50;99.90;;;;;;5014667;28;20444;-79
2023/08/06 02:48:19;;;;;;;1.27;0.77;;;14.50;99.90;;;;;;5017099;28;20447;-80
2023/08/06 02:50:46;;;;;;;3.57;1.63;;;14.50;99.90;;;;;;5016749;28;20479;-80
2023/08/06 02:53:12;;;;;;;0.70;0.70;;;14.40;99.90;;;;;;5016937;28;20447;-80
2023/08/06 02:55:47;;;;;;;0.70;0.57;;;14.40;99.90;;;;;;5016713;28;20440;-79
2023/08/06 02:58:14;;;;;;;0.90;0.60;;;14.30;99.90;;;;;;5016863;28;20867;-79
2023/08/06 03:00:41;;;;;;;0.83;0.50;;;14.30;99.90;;;;;;5016894;28;20435;-80
2023/08/06 03:03:07;;;;;;;0.50;0.50;;;14.30;99.90;;;;;;5016803;28;20447;-79
2023/08/06 03:05:36;;;;;;;0.70;0.63;;;14.20;99.90;;;;;;5016394;28;20844;-79
2023/08/06 03:08:02;;;;;;;2.30;0.73;;;14.20;99.90;;;;;;5016693;28;20455;-80
2023/08/06 03:10:29;;;;;;;0.90;0.70;;;14.20;99.90;;;;;;5016546;28;21102;-79
2023/08/06 03:12:56;;;;;;;0.70;0.40;;;14.30;99.90;;;;;;5016629;28;20534;-79
2023/08/06 03:15:23;;;;;;;1.37;0.93;;;14.30;99.90;;;;;;5016520;28;20471;-80
2023/08/06 03:17:49;;;;;;;1.53;0.50;;;14.40;99.90;;;;;;5016518;28;20455;-80
2023/08/06 03:20:16;;;;;;;0.60;0.60;;;14.40;99.90;;;;;;5016744;28;20435;-79
2023/08/06 03:22:44;;;;;;;0.50;0.50;;;14.50;99.90;;;;;;5016359;28;20956;-80
2023/08/06 03:25:11;;;;;;;2.93;1.00;;;14.40;99.90;;;;;;5016345;28;20468;-80
2023/08/06 03:27:38;;;;;;;0.73;0.73;;;14.40;99.90;;;;;;5016364;28;20447;-80
2023/08/06 03:30:06;;;;;;;1.40;0.50;;;14.50;99.90;;;;;;5016043;28;20999;-79
2023/08/06 03:32:32;;;;;;;1.53;0.50;;;14.40;99.90;;;;;;5016323;28;20447;-80
2023/08/06 03:34:59;;;;;;;4.27;0.80;;;14.40;99.90;;;;;;5015773;28;20992;-80
2023/08/06 03:37:26;;;;;;;0.70;0.50;;;14.40;99.90;;;;;;5015894;28;20948;-79
2023/08/06 03:39:54;;;;;;;2.23;1.00;;;14.30;99.90;;;;;;5016135;28;20444;-80
2023/08/06 03:42:21;;;;;;;0.80;0.50;;;14.40;99.90;;;;;;5016104;28;20444;-79
2023/08/06 03:44:48;;;;;;;3.07;0.80;;;14.40;99.90;;;;;;5015647;28;20474;-79
2023/08/06 03:47:15;;;;;;;0.40;0.40;;;14.40;99.90;;;;;;5015796;28;20435;-79
2023/08/06 03:49:43;;;;;;;1.87;0.80;;;14.50;99.90;;;;;;5015614;28;20483;-79
2023/08/06 03:52:10;;;;;;;0.93;0.67;;;14.50;99.90;;;;;;5015893;28;20491;-80
2023/08/06 03:54:36;;;;;;;0.97;0.50;;;14.50;99.90;;;;;;5015502;28;20904;-79
2023/08/06 03:57:05;;;;;;;0.40;0.40;;;14.40;99.90;;;;;;5015185;28;20447;-79
2023/08/06 03:59:32;;;;;;;0.70;0.60;;;14.40;99.90;;;;;;5015506;28;20442;-80
2023/08/06 04:01:59;;;;;;;0.50;0.50;;;14.40;99.90;;;;;;5015735;28;20454;-79
2023/08/06 04:04:25;;;;;;;0.90;0.60;;;14.40;99.90;;;;;;5015625;28;20462;-79
2023/08/06 04:06:52;;;;;;;0.40;0.37;;;14.50;99.90;;;;;;5015745;28;20448;-79
2023/08/06 04:09:19;;;;;;;1.80;0.80;;;14.50;99.90;;;;;;5015324;28;20439;-80
2023/08/06 04:11:46;;;;;;;0.77;0.63;;;14.50;99.90;;;;;;5015637;28;20487;-80
2023/08/06 04:14:14;;;;;;;1.57;0.50;;;14.40;99.90;;;;;;5015323;28;20472;-80
2023/08/06 04:16:40;;;;;;;0.70;0.53;;;14.30;99.90;;;;;;5015333;28;20452;-80
2023/08/06 04:19:07;;;;;;;2.87;0.50;;;14.30;99.90;;;;;;5015398;28;20443;-80
2023/08/06 04:21:34;;;;;;;0.73;0.73;;;14.30;99.90;;;;;;5015349;28;20450;-80
2023/08/06 04:24:01;;;;;;;0.60;0.50;;;14.30;99.90;;;;;;5015222;28;20467;-80
2023/08/06 04:26:28;;;;;;;0.47;0.47;;;14.20;99.90;;;;;;5015292;28;20462;-80
2023/08/06 04:28:54;;;;;;;0.70;0.70;;;14.30;99.90;;;;;;5014985;28;20436;-80
2023/08/06 04:31:23;;;;;;;0.70;0.63;;;14.20;99.90;;;;;;5015153;28;20487;-80
2023/08/06 04:33:49;;;;;;;0.50;0.40;;;14.20;99.90;;;;;;5015048;28;20982;-80
2023/08/06 04:36:16;;;;;;;0.40;0.33;;;14.20;99.90;;;;;;5014677;28;20482;-80
2023/08/06 04:38:45;;;;;;;0.40;0.40;;;14.20;99.90;;;;;;5015062;28;20452;-80
2023/08/06 04:41:12;;;;;;;0.50;0.50;;;14.20;99.90;;;;;;5015224;28;20440;-80
2023/08/06 04:43:38;;;;;;;1.13;0.40;;;14.20;99.90;;;;;;5014876;28;20875;-80
2023/08/06 04:46:06;;;;;;;0.60;0.43;;;14.30;99.90;;;;;;5014961;28;20432;-80
2023/08/06 04:48:34;;;;;;;0.40;0.40;;;14.30;99.90;;;;;;5014764;28;20827;-80
2023/08/06 04:51:01;;;;;;;0.40;0.40;;;14.40;99.90;;;;;;5014534;28;20841;-80
2023/08/06 04:53:28;;;;;;;0.50;0.50;;;14.40;99.90;;;;;;5014377;28;20948;-80
2023/08/06 04:55:54;;;;;;;0.30;0.30;;;14.50;99.90;;;;;;5014529;28;20507;-80
2023/08/06 04:58:21;;;;;;;0.40;0.30;;;14.50;99.90;;;;;;5014394;28;20448;-80
2023/08/06 05:00:48;;;;;;;0.40;0.40;;;14.50;99.90;;;;;;5014733;28;20459;-80
2023/08/06 05:03:15;;;;;;;0.60;0.40;;;14.50;99.90;;;;;;5014247;28;20436;-80
2023/08/06 05:05:43;;;;;;;1.70;0.40;;;14.50;99.90;;;;;;5014860;28;20440;-80
2023/08/06 05:08:16;;;;;;;0.77;0.40;;;14.60;99.90;;;;;;5014395;28;20827;-80
2023/08/06 05:10:43;;;;;;;0.40;0.30;;;14.70;99.90;;;;;;5013732;28;20475;-79
2023/08/06 05:13:10;;;;;;;2.33;0.40;;;14.70;99.90;;;;;;5014460;28;20513;-80
2023/08/06 05:15:37;;;;;;;0.70;0.50;;;14.70;99.90;;;;;;5014003;28;20989;-80
2023/08/06 05:18:04;;;;;;;0.30;0.30;;;14.80;99.90;;;;;;5014047;28;20454;-80
2023/08/06 05:20:30;;;;;;;3.13;0.40;;;14.80;99.90;;;;;;5014101;28;20454;-80
2023/08/06 05:22:59;;;;;;;0.40;0.30;;;14.90;99.90;;;;;;5014293;28;20439;-80
2023/08/06 05:25:25;;;;;;;0.30;0.30;;;15.00;99.90;;;;;;5014197;28;20475;-80
2023/08/06 05:27:53;;;;;;;0.30;0.30;;;15.00;99.90;;;;;;5013929;28;20435;-80
2023/08/06 05:30:20;;;;;;;0.30;0.30;;;14.90;99.90;;;;;;5014064;28;20580;-80
2023/08/06 05:32:46;;;;;;;0.50;0.30;;;15.00;99.90;;;;;;5013789;28;20940;-79
2023/08/06 05:35:13;;;;;;;0.30;0.30;;;14.90;99.90;;;;;;5013551;28;21000;-80
2023/08/06 05:37:40;;;;;;;0.30;0.30;;;15.00;99.90;;;;;;5014003;28;20443;-79
2023/08/06 05:40:09;;;;;;;1.47;0.40;;;15.00;99.90;;;;;;5013694;28;20440;-80
2023/08/06 05:42:36;;;;;;;0.30;0.30;;;15.10;99.90;;;;;;5013904;28;20443;-79
2023/08/06 05:45:03;;;;;;;0.40;0.30;;;15.10;99.90;;;;;;5013568;28;20455;-80
2023/08/06 05:47:29;;;;;;;0.40;0.40;;;15.00;99.90;;;;;;5013584;28;20440;-80
2023/08/06 05:49:56;;;;;;;0.40;0.40;;;15.10;99.90;;;;;;5013778;28;20448;-79
2023/08/06 05:52:23;;;;;;;0.47;0.30;;;15.00;99.90;;;;;;5013682;28;20491;-79
2023/08/06 05:54:49;;;;;;;0.40;0.30;;;15.10;99.90;;;;;;5013872;28;20829;-79
2023/08/06 05:57:18;;;;;;;0.40;0.30;;;15.10;99.90;;;;;;5013597;28;20453;-80
2023/08/06 05:59:45;;;;;;;0.40;0.30;;;15.10;99.90;;;;;;5013403;28;20964;-80
2023/08/06 06:02:12;;;;;;;0.40;0.37;;;15.00;99.90;;;;;;5013492;28;20444;-79
2023/08/06 06:04:38;;;;;;;3.27;0.40;;;14.80;99.90;;;;;;5013536;28;20463;-80
2023/08/06 06:07:05;;;;;;;0.97;0.50;;;14.80;99.90;;;;;;5013625;28;20463;-80
2023/08/06 06:09:32;;;;;;;0.30;0.30;;;14.70;99.90;;;;;;5013701;28;20454;-80
2023/08/06 06:11:59;;;;;;;0.30;0.30;;;14.70;99.90;;;;;;5013488;28;20497;-79
2023/08/06 06:14:27;;;;;;;0.40;0.40;;;14.70;99.90;;;;;;5013468;28;20471;-80
2023/08/06 06:16:54;;;;;;;0.40;0.30;;;14.60;99.90;;;;;;5013543;28;20444;-80
2023/08/06 06:19:20;;;;;;;0.40;0.40;;;14.70;99.90;;;;;;5013516;28;20444;-80
2023/08/06 06:21:47;;;;;;;0.40;0.30;;;14.70;99.90;;;;;;5016559;28;20443;-80
2023/08/06 06:24:14;;;;;;;0.40;0.30;;;14.60;99.90;;;;;;5017506;28;20478;-80
2023/08/06 06:26:40;;;;;;;1.20;0.40;;;14.60;99.90;;;;;;5017541;28;20443;-80
2023/08/06 06:29:07;;;;;;;0.37;0.30;;;14.60;99.90;;;;;;5017459;28;20451;-80
2023/08/06 06:31:35;;;;;;;0.30;0.30;;;14.70;99.90;;;;;;5017408;28;20480;-79
2023/08/06 06:34:02;;;;;;;0.40;0.30;;;14.80;99.90;;;;;;5017657;28;20980;-80
2023/08/06 06:36:29;;;;;;;0.40;0.33;;;14.80;99.90;;;;;;5016942;28;20478;-80
2023/08/06 06:38:56;;;;;;;1.60;0.60;;;14.80;99.90;;;;;;5017317;28;20451;-79
2023/08/06 06:41:23;;;;;;;3.20;0.57;;;14.90;99.90;;;;;;5016917;28;20509;-79
2023/08/06 06:43:50;;;;;;;1.13;0.73;;;14.90;99.90;;;;;;5017145;28;20554;-79
2023/08/06 06:46:17;;;;;;;0.40;0.30;;;14.80;99.90;;;;;;5016882;28;20494;-80
2023/08/06 06:48:45;;;;;;;0.40;0.30;;;14.80;99.90;;;;;;5016764;28;20450;-80
2023/08/06 06:51:12;;;;;;;0.40;0.40;;;14.70;99.90;;;;;;5016908;28;20494;-81
2023/08/06 06:53:38;;;;;;;0.63;0.30;;;14.50;99.90;;;;;;5016976;28;20475;-83
2023/08/06 06:56:06;;;;;;;0.40;0.30;;;14.40;99.90;;;;;;5016951;28;20447;-85
2023/08/06 06:58:33;;;;;;;0.60;0.40;;;14.20;99.90;;;;;;5016909;28;20446;-85
2023/08/06 07:01:00;;;;;;;0.37;0.30;;;14.20;99.90;;;;;;5016568;28;20446;-85
2023/08/06 07:03:26;;;;;;;0.30;0.30;;;14.10;99.90;;;;;;5016823;28;20458;-84
2023/08/06 07:05:58;;;;;;;0.40;0.30;;;14.00;99.90;;;;;;5016802;28;20522;-84
2023/08/06 07:08:25;;;;;;;0.40;0.30;;;14.00;99.90;;;;;;5016797;28;20416;-86
2023/08/06 07:11:00;;;;;;;0.60;0.40;;;14.00;99.90;;;;;;5016694;28;20475;-86
2023/08/06 07:13:26;;;;;;;0.30;0.20;;;14.00;99.90;;;;;;5016451;28;20414;-84
2023/08/06 07:15:53;;;;;;;0.30;0.20;;;14.00;99.90;;;;;;5016501;28;20436;-84
2023/08/06 07:18:20;;;;;;;0.40;0.30;;;14.10;99.90;;;;;;5016624;28;20435;-85
2023/08/06 07:20:49;;;;;;;0.30;0.20;;;14.00;99.90;;;;;;5016442;28;20447;-85
2023/08/06 07:23:17;;;;;;;0.40;0.30;;;14.00;99.90;;;;;;5016085;28;20458;-85
2023/08/06 07:25:44;;;;;;;0.30;0.30;;;13.90;99.90;;;;;;5016457;28;20450;-84
2023/08/06 07:28:11;;;;;;;0.50;0.30;;;13.90;99.90;;;;;;5016252;28;20448;-84
2023/08/06 07:30:39;;;;;;;0.30;0.20;;;13.90;99.90;;;;;;5016496;28;20431;-83
2023/08/06 07:33:06;;;;;;;0.30;0.20;;;13.90;99.90;;;;;;5015243;28;20454;-83
2023/08/06 07:35:33;;;;;;;0.40;0.27;;;13.80;99.90;;;;;;5015883;28;20493;-83
2023/08/06 07:38:00;;;;;;;0.30;0.23;;;13.80;99.90;;;;;;5016146;28;20452;-83
2023/08/06 07:40:28;;;;;;;0.30;0.27;;;13.80;99.90;;;;;;5016115;28;20443;-83
2023/08/06 07:42:55;;;;;;;0.30;0.20;;;13.70;99.90;;;;;;5016038;28;20436;-82
2023/08/06 07:45:22;;;;;;;0.30;0.30;;;13.70;99.90;;;;;;5015755;28;20460;-83
2023/08/06 07:47:49;;;;;;;0.30;0.20;;;13.60;99.90;;;;;;5015768;28;20440;-82
2023/08/06 07:50:16;;;;;;;0.40;0.30;;;13.60;99.90;;;;;;5016287;28;20542;-83
2023/08/06 07:52:42;;;;;;;0.30;0.20;;;13.60;99.90;;;;;;5015530;28;20484;-82
2023/08/06 07:55:09;;;;;;;2.00;0.50;;;13.70;99.90;;;;;;5015763;28;20468;-82
2023/08/06 07:57:38;;;;;;;0.30;0.23;;;13.80;99.90;;;;;;5015767;28;20466;-82
2023/08/06 08:00:06;;;;;;;0.30;0.30;;;13.90;99.90;;;;;;5015771;28;20550;-82
2023/08/06 08:02:32;;;;;;;0.40;0.30;;;14.00;99.90;;;;;;5015765;28;20801;-82
2023/08/06 08:04:59;;;;;;;0.30;0.20;;;14.10;99.90;;;;;;5015676;28;20995;-83
2023/08/06 08:07:28;;;;;;;0.30;0.30;;;14.10;99.90;;;;;;5015296;28;20455;-82
2023/08/06 08:09:54;;;;;;;0.40;0.30;;;14.10;99.90;;;;;;5015237;28;21002;-83
2023/08/06 08:12:21;;;;;;;0.30;0.20;;;14.20;99.90;;;;;;5015234;28;21034;-82
2023/08/06 08:14:49;;;;;;;0.47;0.30;;;14.30;99.90;;;;;;5015074;28;21025;-83
2023/08/06 08:17:16;;;;;;;0.30;0.20;;;14.30;99.90;;;;;;5015267;28;20462;-83
2023/08/06 08:19:44;;;;;;;0.30;0.30;;;14.20;99.90;;;;;;5015740;28;20443;-83
2023/08/06 08:22:11;;;;;;;0.40;0.30;;;14.20;99.90;;;;;;5015304;28;20450;-82
2023/08/06 08:24:37;;;;;;;0.30;0.20;;;14.20;99.90;;;;;;5014918;28;20832;-82
2023/08/06 08:27:05;;;;;;;0.50;0.27;;;14.10;99.90;;;;;;5015022;28;20470;-82
2023/08/06 08:29:32;;;;;;;0.30;0.20;;;14.10;99.90;;;;;;5015414;28;20455;-82
2023/08/06 08:32:00;;;;;;;0.30;0.20;;;14.00;99.90;;;;;;5015107;28;20511;-82
2023/08/06 08:34:27;;;;;;;0.30;0.20;;;14.00;99.90;;;;;;5014559;28;20834;-82
2023/08/06 08:36:54;;;;;;;0.30;0.20;;;14.00;99.90;;;;;;5015080;28;20897;-82
2023/08/06 08:39:20;;;;;;;0.40;0.30;;;14.00;99.90;;;;;;5014701;28;20830;-82
2023/08/06 08:41:47;;;;;;;0.30;0.20;;;14.00;99.90;;;;;;5014929;28;20811;-83
2023/08/06 08:44:17;;;;;;;0.40;0.30;;;14.10;99.90;;;;;;5014304;28;20848;-83
2023/08/06 08:46:45;;;;;;;0.30;0.27;;;14.10;99.90;;;;;;5014515;28;20450;-83
2023/08/06 08:49:13;;;;;;;0.30;0.20;;;14.00;99.90;;;;;;5014486;28;20530;-82
2023/08/06 08:51:40;;;;;;;0.30;0.23;;;14.00;99.90;;;;;;5014769;28;20483;-83
2023/08/06 08:54:09;;;;;;;0.30;0.20;;;14.00;99.90;;;;;;5014391;28;20463;-83
2023/08/06 08:56:36;;;;;;;0.30;0.30;;;14.00;99.90;;;;;;5014379;28;20456;-83
2023/08/06 08:59:03;;;;;;;0.30;0.23;;;14.10;99.90;;;;;;5014765;28;20448;-84
2023/08/06 09:01:30;;;;;;;0.30;0.20;;;14.30;99.90;;;;;;5014605;28;20443;-83
2023/08/06 09:03:59;;;;;;;1.30;0.30;;;14.30;99.90;;;;;;5014195;28;21018;-82
2023/08/06 09:06:30;;;;;;;0.30;0.30;;;14.60;99.90;;;;;;5014504;28;20543;-83
2023/08/06 09:09:03;;;;;;;0.30;0.20;;;14.70;99.90;;;;;;5014257;28;20909;-83
2023/08/06 09:11:39;;;;;;;0.30;0.20;;;14.80;99.90;;;;;;5014419;28;20495;-83
2023/08/06 09:14:07;;;;;;;0.30;0.20;;;15.00;99.90;;;;;;5014087;28;20964;-83
2023/08/06 09:16:35;;;;;;;0.30;0.20;;;15.10;99.90;;;;;;5014302;28;20440;-83
2023/08/06 09:19:08;;;;;;;0.30;0.20;;;15.10;99.90;;;;;;5014332;28;20419;-84
2023/08/06 09:21:39;;;;;;;0.30;0.20;;;15.10;99.90;;;;;;5014023;28;20428;-83
2023/08/06 09:24:09;;;;;;;0.30;0.20;;;15.10;99.90;;;;;;5014195;28;20832;-83
2023/08/06 09:26:35;;;;;;;0.30;0.20;;;15.10;99.90;;;;;;5014502;28;20440;-83
2023/08/06 09:29:03;;;;;;;0.30;0.20;;;15.10;99.90;;;;;;5013910;28;20439;-83
2023/08/06 09:31:34;;;;;;;0.50;0.30;;;15.10;99.90;;;;;;5014303;28;20479;-82
2023/08/06 09:34:01;;;;;;;0.30;0.20;;;15.10;99.90;;;;;;5013764;28;20479;-83
2023/08/06 09:36:28;;;;;;;0.30;0.20;;;14.90;99.90;;;;;;5013923;28;20521;-85
2023/08/06 09:38:57;;;;;;;0.30;0.30;;;14.70;99.90;;;;;;5014038;28;20825;-83
2023/08/06 09:41:30;;;;;;;0.30;0.20;;;14.80;99.90;;;;;;5013647;28;20454;-83
2023/08/06 09:43:56;;;;;;;0.30;0.20;;;14.80;99.90;;;;;;5014032;28;20474;-83
2023/08/06 09:46:23;;;;;;;0.50;0.30;;;14.80;99.90;;;;;;5014391;28;20447;-83
2023/08/06 09:48:51;;;;;;;0.30;0.30;;;14.80;99.90;;;;;;5013894;28;20443;-83
2023/08/06 09:51:18;;;;;;;0.30;0.20;;;14.60;99.90;;;;;;5013633;28;20447;-84
2023/08/06 09:53:45;;;;;;;0.30;0.30;;;14.50;99.90;;;;;;5013639;28;20462;-84
2023/08/06 09:56:16;;;;;;;0.40;0.30;;;14.40;99.90;;;;;;5013119;28;20443;-83
2023/08/06 09:58:43;;;;;;;0.30;0.30;;;14.30;99.90;;;;;;5014414;28;20427;-84
2023/08/06 10:01:12;;;;;;;0.37;0.27;;;14.30;99.90;;;;;;5013746;28;20428;-83
2023/08/06 10:03:41;;;;;;;0.30;0.20;;;14.30;99.90;;;;;;5013555;28;20543;-83
2023/08/06 10:06:08;;;;;;;0.30;0.20;;;14.20;99.90;;;;;;5013825;28;20450;-82
2023/08/06 10:08:35;;;;;;;0.30;0.20;;;14.20;99.90;;;;;;5013551;28;20452;-84
2023/08/06 10:11:05;;;;;;;0.30;0.30;;;14.20;99.90;;;;;;5013529;28;20443;-83
2023/08/06 10:13:35;;;;;;;0.30;0.30;;;14.20;99.90;;;;;;5013086;28;20491;-83
2023/08/06 10:16:04;;;;;;;0.30;0.30;;;14.30;99.90;;;;;;5013333;28;20797;-82
2023/08/06 10:18:31;;;;;;;0.30;0.30;;;14.30;99.90;;;;;;5013231;28;20917;-83
2023/08/06 10:20:58;;;;;;;3.70;0.30;;;14.30;99.90;;;;;;5013104;28;20451;-83
2023/08/06 10:23:38;;;;;;;0.30;0.20;;;14.30;99.90;;;;;;5013078;28;20446;-83
2023/08/06 10:26:05;;;;;;;0.30;0.30;;;14.30;99.90;;;;;;5014769;28;20456;-83
2023/08/06 10:28:38;;;;;;;0.30;0.20;;;14.40;99.90;;;;;;5014173;28;20444;-82
2023/08/06 10:31:05;;;;;;;0.63;0.40;;;14.40;99.90;;;;;;5013255;28;20493;-83
2023/08/06 10:33:44;;;;;;;0.30;0.20;;;14.50;99.90;;;;;;5012887;28;20494;-81
2023/08/06 10:36:11;;;;;;;0.30;0.30;;;14.40;99.90;;;;;;5013136;28;21082;-84
2023/08/06 10:38:46;;;;;;;0.40;0.30;;;14.40;99.90;;;;;;5013244;28;20442;-89
2023/08/06 10:41:19;;;;;;;0.40;0.30;;;14.40;99.90;;;;;;5013613;28;20434;-82
2023/08/06 10:43:49;;;;;;;0.40;0.30;;;14.30;99.90;;;;;;5013196;28;20473;-84
2023/08/06 10:46:23;;;;;;;0.30;0.30;;;14.30;99.90;;;;;;5013235;28;20513;-84
2023/08/06 10:48:50;;;;;;;0.40;0.30;;;14.40;99.90;;;;;;5013366;28;20434;-84
2023/08/06 10:51:17;;;;;;;0.40;0.40;;;14.30;99.90;;;;;;5013209;28;20447;-84
2023/08/06 10:53:45;;;;;;;0.30;0.30;;;14.40;99.90;;;;;;5013111;28;20499;-84
2023/08/06 10:56:15;;;;;;;0.40;0.30;;;14.30;99.90;;;;;;5020616;28;20502;-84
2023/08/06 10:58:42;;;;;;;0.30;0.30;;;14.30;99.90;;;;;;5013344;28;20455;-83
2023/08/06 11:01:11;;;;;;;0.30;0.20;;;14.20;99.90;;;;;;5012895;28;20436;-83
2023/08/06 11:03:39;;;;;;;0.30;0.20;;;14.20;99.90;;;;;;5013037;28;20468;-84
2023/08/06 11:06:07;;;;;;;0.30;0.20;;;14.20;99.90;;;;;;5012965;28;20434;-83
2023/08/06 11:08:35;;;;;;;0.30;0.20;;;14.30;99.90;;;;;;5016551;28;20955;-84
2023/08/06 11:11:10;;;;;;;0.30;0.20;;;14.40;99.90;;;;;;5016734;28;20454;-83
2023/08/06 11:13:37;;;;;;;0.30;0.30;;;14.40;99.90;;;;;;5016639;28;20499;-83
2023/08/06 11:16:05;;;;;;;0.30;0.30;;;14.40;99.90;;;;;;5016689;28;20438;-82
2023/08/06 11:18:33;;;;;;;0.30;0.30;;;14.40;99.90;;;;;;5016709;28;20451;-84
2023/08/06 11:21:01;;;;;;;0.30;0.30;;;14.50;99.90;;;;;;5016518;28;20509;-83
2023/08/06 11:23:28;;;;;;;0.50;0.30;;;14.40;99.90;;;;;;5016393;28;20439;-83
2023/08/06 11:25:55;;;;;;;0.40;0.30;;;14.40;99.90;;;;;;5016565;28;20432;-83
2023/08/06 11:28:22;;;;;;;0.30;0.20;;;14.40;99.90;;;;;;5016058;28;20450;-83
2023/08/06 11:30:49;;;;;;;0.30;0.30;;;14.40;99.90;;;;;;5016056;28;20454;-84
2023/08/06 11:33:20;;;;;;;0.30;0.30;;;14.40;99.90;;;;;;5016176;28;20479;-83
2023/08/06 11:35:49;;;;;;;0.40;0.30;;;14.40;99.90;;;;;;5015817;28;21023;-84
2023/08/06 11:38:16;;;;;;;0.30;0.30;;;14.40;99.90;;;;;;5016260;28;20442;-84
2023/08/06 11:40:44;;;;;;;3.03;0.40;;;14.40;99.90;;;;;;5016215;28;20860;-84
2023/08/06 11:43:12;;;;;;;0.40;0.40;;;14.40;99.90;;;;;;5016156;28;20451;-84
2023/08/06 11:45:38;;;;;;;0.40;0.30;;;14.40;99.90;;;;;;5016025;28;20471;-83
2023/08/06 11:48:06;;;;;;;0.40;0.30;;;14.30;99.90;;;;;;5016933;28;20447;-85
2023/08/06 11:50:37;;;;;;;0.50;0.30;;;14.30;99.90;;;;;;5015946;28;20439;-85
2023/08/06 11:53:05;;;;;;;0.30;0.30;;;14.20;99.90;;;;;;5015925;28;20475;-85
2023/08/06 11:55:32;;;;;;;0.47;0.40;;;14.20;99.90;;;;;;5015870;28;20998;-85
2023/08/06 11:58:03;;;;;;;0.57;0.40;;;14.30;99.90;;;;;;5015914;28;20458;-85
2023/08/06 12:00:30;;;;;;;0.40;0.40;;;14.30;99.90;;;;;;5016373;28;20454;-85
2023/08/06 12:02:57;;;;;;;0.40;0.30;;;14.20;99.90;;;;;;5015832;28;20448;-84
2023/08/06 12:05:29;;;;;;;0.30;0.30;;;14.20;99.90;;;;;;5015424;28;20463;-83
2023/08/06 12:07:58;;;;;;;0.30;0.30;;;14.20;99.90;;;;;;5015549;28;20932;-84
2023/08/06 12:10:28;;;;;;;0.47;0.30;;;14.20;99.90;;;;;;5015721;28;20444;-84
2023/08/06 12:12:55;;;;;;;0.40;0.40;;;14.20;99.90;;;;;;5015566;28;20856;-84
2023/08/06 12:15:24;;;;;;;0.40;0.30;;;14.10;99.90;;;;;;5015165;28;20476;-85
2023/08/06 12:17:51;;;;;;;0.47;0.40;;;14.10;99.90;;;;;;5016507;28;20442;-86
2023/08/06 12:20:18;;;;;;;0.40;0.30;;;14.20;99.90;;;;;;5015091;28;20440;-84
2023/08/06 12:22:45;;;;;;;3.70;0.30;;;14.20;99.90;;;;;;5015338;28;20448;-83
2023/08/06 12:25:13;;;;;;;0.30;0.30;;;14.30;99.90;;;;;;5015276;28;20530;-84
2023/08/06 12:27:42;;;;;;;0.63;0.37;;;14.40;99.90;;;;;;5015288;28;20451;-84
2023/08/06 12:30:11;;;;;;;0.40;0.30;;;14.50;99.90;;;;;;5015268;28;20454;-84
2023/08/06 12:32:38;;;;;;;0.40;0.30;;;14.60;99.90;;;;;;5015190;28;20495;-84
2023/08/06 12:35:07;;;;;;;0.40;0.40;;;14.50;99.90;;;;;;5014694;28;21006;-83
2023/08/06 12:37:34;;;;;;;0.60;0.60;;;14.40;99.90;;;;;;5015893;28;20963;-84
2023/08/06 12:40:01;;;;;;;0.40;0.30;;;14.40;99.90;;;;;;5014790;28;20909;-84
2023/08/06 12:42:27;;;;;;;0.40;0.30;;;14.30;99.90;;;;;;5014775;28;20454;-83
2023/08/06 12:44:55;;;;;;;0.30;0.30;;;14.40;99.90;;;;;;5014896;28;20468;-82
2023/08/06 12:47:22;;;;;;;0.40;0.40;;;14.40;99.90;;;;;;5014831;28;20498;-84
2023/08/06 12:49:49;;;;;;;0.30;0.30;;;14.50;99.90;;;;;;5014556;28;20945;-85